Champlain, Canada
Current Conditions -  °F | °C
As of 12:00 AM on Thursday 23 Oct 2014 (Local Time) from CYRQ Reporting Station
Scattered Clouds Scattered Clouds  
Wind Chill: 37°   Ceiling: Unl
Heat Index: 43°   Visibility: 9mi
Dew Point: 34°   Wind: 12mph
Humidity: 70%   Direction: 30°NNE
Pressure: 30.24"   Gusts: NA
Location:  46.43°N, 72.35°W
Report Text: CYRQ 230400Z AUTO 03010KT 9SM FEW095 SCT210 06/01 A3024 RMK SLP241
Loading
Personal Weather Stations






























Interactive Weather Map
Tropical Storm Tracking
New forecast layout! Learn more

10-Day Weather Forecast

Advertisements
Track Severe Weather on mobile